Bedford, PA

12:13 AM EDT on September 01, 2016 (GMT -0400)
Lakewood Manor | | Change Station

Elev 1178 ft 40.04 °N, 78.52 °W | Updated 8 minutes ago

Light Rain
Light Rain
66.6 °F
Feels Like 66.6 °F
N
0.0
Wind Variable Wind from NNW

Today
High -- | Low -- °F
--% Chance of Precip.
Yesterday
High -- | Low -- °F
Precip. -- in
Pressure 29.96 in
Visibility 7.0 miles
Clouds Scattered Clouds 6000 ft
Scattered Clouds 7500 ft
Overcast 11000 ft
Dew Point 66 °F
Humidity 99%
Rainfall 0.00 in
Snow Depth Not available.
6:42 AM 7:44 PM
Waning Crescent, 0% visible
METAR KHMZ 010355Z AUTO 00000KT 7SM -RA SCT060 SCT075 OVC110 19/18 A2996 RMK AO2 P0008 T01880176
Pressure 29.96 in
Visibility 7.0 miles
Clouds Scattered Clouds 6000 ft
Scattered Clouds 7500 ft
Overcast 11000 ft
Dew Point 66 °F
Humidity 99%
Rainfall 0.00 in
Snow Depth Not available.
6:42 AM 7:44 PM
Waning Crescent, 0% visible
METAR KHMZ 010355Z AUTO 00000KT 7SM -RA SCT060 SCT075 OVC110 19/18 A2996 RMK AO2 P0008 T01880176

10-Day Weather Forecast

Almanac

Astronomy

Sep. 01, 2016 Rise Set
Actual Time
Civil Twilight
Nautical Twilight
Astronomical Twilight
Moon
Length of Visible Light
Length of Day
Tomorrow will be .
, % of the Moon is Illuminated

Today's Extremes

State Highs State Lows

Community

WunderPhotos

Upload Photos

1,936,302 photos uploaded!

WunderBlog® & News

Nearby

Air Quality

  Air Quality AQ Index Pollutant
Not available.

Snow Depth

Station Depth Elevation

Earthquake Activity

City Distance Mag. Time & Date
Minimum magnitude displayed is 2.5.

Coastal Water Temperatures

Place Temperature

Stations

Nearby Weather Stations

Station Location Temp. Windchill Dew Point Humidity Wind Precip. Elev Updated Type
                   

Watches & Warnings

There are currently no watches in effect.